Have a Safe July 4th! 

Flight Track Log - Related Links

Times and Time Zones

All times are in EST time to prevent confusion due to time zone crossing. See the N225SB flight status page for this flight to view local times or setup timezone preferences in your user account.

Time Position Orientation Groundspeed Altitude Reporting Facility
EST Latitude Longitude Course Direction KTS MPH feet Rate Location/Type
Mon 07:09:08 AM 42.4833 -71.3167 360° North 182 209 1,200  Level KA90
Mon 07:09:45 AM 42.5167 -71.3167 360° North 240 276 3,500 3,563 Climbing KA90
Mon 07:10:44 AM 42.5667 -71.2833 26° Northeast 234 269 6,900 2,913 Climbing KA90
Mon 07:12:03 AM 42.6606 -71.2844 360° North 254 292 10,200 2,633 Climbing Boston Center
Mon 07:13:03 AM 42.7422 -71.2778 North 293 337 13,000 2,800 Climbing Boston Center
Mon 07:14:03 AM 42.8281 -71.3156 342° North 310 357 15,800 1,512 Climbing Boston Center
Mon 07:15:06 AM 42.8978 -71.3961 320° Northwest 324 373 16,100 146 Climbing Boston Center
Mon 07:16:06 AM 42.9708 -71.4778 321° Northwest 337 388 16,100  Level Boston Center
Mon 07:17:07 AM 43.0453 -71.5583 322° Northwest 341 392 16,100 -49 Level Boston Center
Mon 07:18:09 AM 43.1197 -71.6383 322° Northwest 340 391 16,000  Descending Boston Center
Mon 07:19:08 AM 43.1939 -71.7200 321° Northwest 342 394 16,100 49 Climbing Boston Center
Mon 07:20:11 AM 43.2739 -71.8072 322° Northwest 342 394 16,100 -48 Level Boston Center
Mon 07:21:12 AM 43.3489 -71.8889 322° Northwest 344 396 16,000 -49 Descending Boston Center
Mon 07:22:13 AM 43.4244 -71.9714 322° Northwest 348 400 16,000  Level Boston Center
Mon 07:23:14 AM 43.5017 -72.0497 324° Northwest 347 399 16,000  Level Boston Center
Mon 07:24:15 AM 43.5786 -72.1300 323° Northwest 348 400 16,000  Level Boston Center
Mon 07:25:16 AM 43.6522 -72.2053 324° Northwest 337 388 16,000  Level Boston Center
Mon 07:26:17 AM 43.7264 -72.2819 323° Northwest 334 384 16,000  Level Boston Center
Mon 07:27:16 AM 43.8017 -72.3617 323° Northwest 339 390 16,000 -639 Level Boston Center
Mon 07:28:19 AM 43.8803 -72.4417 324° Northwest 348 400 14,700 -1,597 Descending Boston Center
Mon 07:29:20 AM 43.9642 -72.5344 321° Northwest 347 399 12,700 -1,884 Descending Boston Center
Mon 07:30:20 AM 44.0356 -72.6072 324° Northwest 326 375 10,900 -1,450 Descending Boston Center
Mon 07:31:20 AM 44.1014 -72.6653 328° Northwest 276 318 9,800 -1,240 Descending Boston Center
Mon 07:32:21 AM 44.1575 -72.7136 328° Northwest 225 259 8,400 -1,328 Descending Boston Center
Mon 07:33:22 AM 44.2058 -72.7553 328° Northwest 209 241 7,100 -694 Descending Boston Center
Mon 07:34:22 AM 44.2497 -72.7919 329° Northwest 189 217 7,000 -146 Descending Boston Center
Mon 07:35:25 AM 44.2814 -72.8447 310° West 171 197 6,800 -726 Descending Boston Center
Mon 07:36:26 AM 44.3097 -72.8958 308° West 170 196 5,500 -1,131 Descending Boston Center
Mon 07:37:27 AM 44.3428 -72.9425 315° West 169 194 4,500 -1,082 Descending Boston Center
Mon 07:38:28 AM 44.3753 -72.9978 309° West 171 197 3,300 -1,082 Descending Boston Center
Mon 07:39:29 AM 44.4067 -73.0469 312° West 172 198 2,300 -893 Descending Boston Center
Mon 07:40:29 AM 44.4336 -73.0906 311° West 155 178 1,500 -843 Descending Boston Center
Mon 07:41:30 AM 44.4564 -73.1267 311° West 131 151 600 -885 Descending Boston Center
Mon 07:43:00 AM 44.4667 -73.1500 316° Northwest  Level FlightAware Approximate
Mon 07:50:00 AM 44.4719 -73.1533 316° Northwest  Level Estimated
Mon 07:51:00 AM 44.4667 -73.1500 316° Northwest  Level FlightAware Approximate

Login

Don't have an account? Register now (free) for customized features, flight alerts, and more!